Time;durP1;ratioP1;P1;durP2;ratioP2;P2;SDS_P1;SDS_P2;PMS_P1;PMS_P2;Temp;Humidity;BMP_temperature;BMP_pressure;BME280_temperature;BME280_humidity;BME280_pressure;Samples;Min_cycle;Max_cycle;Signal;HPM_P1;HPM_P2
2024/04/03 00:00:11;;;;;;;1.70;0.70;;;;;;;8.04;77.06;95791.36;108519;1275;22556;-74
2024/04/03 00:03:02;;;;;;;1.90;0.80;;;;;;;8.02;76.93;95792.06;108586;1275;25386;-73
2024/04/03 00:05:32;;;;;;;1.50;0.70;;;;;;;8.01;76.84;95793.76;108541;1275;22538;-74
2024/04/03 00:08:03;;;;;;;2.10;0.90;;;;;;;8.01;76.47;95797.23;108557;1275;22523;-73
2024/04/03 00:10:34;;;;;;;2.00;0.60;;;;;;;8.00;76.25;95794.14;108496;1275;24215;-73
2024/04/03 00:13:05;;;;;;;2.30;0.70;;;;;;;8.01;76.11;95791.59;108594;1275;25492;-74
2024/04/03 00:15:37;;;;;;;1.90;0.70;;;;;;;8.04;75.71;95796.91;108585;1275;22639;-73
2024/04/03 00:18:07;;;;;;;0.50;0.40;;;;;;;8.05;75.48;95799.48;108593;1272;23198;-73
2024/04/03 00:20:38;;;;;;;1.50;0.60;;;;;;;8.06;75.37;95798.79;108592;1269;22612;-74
2024/04/03 00:23:08;;;;;;;3.30;0.90;;;;;;;8.09;75.32;95801.75;108558;1272;23058;-74
2024/04/03 00:25:39;;;;;;;2.50;0.50;;;;;;;8.09;75.33;95802.92;108568;1272;24252;-74
2024/04/03 00:28:09;;;;;;;1.10;0.60;;;;;;;8.07;75.24;95805.06;108483;1275;22527;-74
2024/04/03 00:30:40;;;;;;;3.90;0.90;;;;;;;8.07;75.20;95802.73;108565;1275;22537;-74
2024/04/03 00:33:11;;;;;;;0.90;0.60;;;;;;;8.07;75.12;95802.95;108553;1275;22533;-74
2024/04/03 00:35:43;;;;;;;2.30;0.90;;;;;;;8.05;75.06;95807.30;108556;1275;22565;-74
2024/04/03 00:38:14;;;;;;;2.20;0.70;;;;;;;8.03;75.02;95806.11;108512;1275;22666;-73
2024/04/03 00:40:44;;;;;;;4.10;0.70;;;;;;;7.98;75.08;95805.57;108561;1275;22912;-74
2024/04/03 00:43:18;;;;;;;1.60;0.90;;;;;;;7.95;75.06;95801.97;108505;1276;22557;-74
2024/04/03 00:45:49;;;;;;;1.30;1.00;;;;;;;7.93;74.96;95802.84;108519;1275;22596;-74
2024/04/03 00:48:21;;;;;;;1.50;0.60;;;;;;;7.92;74.88;95805.49;108548;1273;22555;-73
2024/04/03 00:50:54;;;;;;;2.10;0.90;;;;;;;7.89;74.88;95801.83;108552;1275;22532;-74
2024/04/03 00:53:26;;;;;;;2.50;0.80;;;;;;;7.86;75.08;95805.05;108528;1276;25398;-74
2024/04/03 00:55:57;;;;;;;2.30;0.80;;;;;;;7.84;74.88;95806.19;108511;1275;22541;-73
2024/04/03 00:58:27;;;;;;;2.20;1.00;;;;;;;7.81;75.01;95799.31;108551;1275;24210;-74
2024/04/03 01:00:58;;;;;;;3.20;0.80;;;;;;;7.78;75.19;95798.20;108595;1276;22540;-74
2024/04/03 01:03:29;;;;;;;2.20;1.00;;;;;;;7.74;75.14;95793.48;108618;1275;23180;-73
2024/04/03 01:06:05;;;;;;;1.50;0.80;;;;;;;7.67;75.26;95796.86;108568;1276;22528;-74
2024/04/03 01:08:35;;;;;;;2.90;0.80;;;;;;;7.63;75.31;95793.95;108587;1273;24375;-73
2024/04/03 01:11:06;;;;;;;2.00;0.50;;;;;;;7.59;75.25;95796.79;108568;1272;24250;-74
2024/04/03 01:13:37;;;;;;;2.20;0.70;;;;;;;7.56;75.36;95795.23;108540;1275;23589;-73
2024/04/03 01:16:08;;;;;;;1.50;0.60;;;;;;;7.52;75.38;95795.85;108576;1275;22551;-73
2024/04/03 01:18:38;;;;;;;1.40;0.80;;;;;;;7.50;75.53;95795.93;108572;1270;24157;-74
2024/04/03 01:21:09;;;;;;;2.90;0.70;;;;;;;7.47;75.34;95802.29;108579;1270;25566;-74
2024/04/03 01:23:40;;;;;;;1.60;0.80;;;;;;;7.42;75.38;95801.52;108577;1275;22532;-74
2024/04/03 01:26:10;;;;;;;0.70;0.60;;;;;;;7.39;75.25;95800.98;108568;1276;22548;-73
2024/04/03 01:28:41;;;;;;;2.30;0.70;;;;;;;7.37;75.19;95792.88;108620;1272;22521;-74
2024/04/03 01:31:11;;;;;;;3.50;0.70;;;;;;;7.33;75.22;95804.73;108605;1272;25198;-73
2024/04/03 01:33:42;;;;;;;2.40;0.60;;;;;;;7.32;75.07;95806.36;108564;1272;22526;-73
2024/04/03 01:36:13;;;;;;;1.80;0.70;;;;;;;7.29;75.26;95805.23;108591;1275;22560;-73
2024/04/03 01:38:45;;;;;;;1.90;0.80;;;;;;;7.24;75.23;95805.70;108584;1275;22522;-73
2024/04/03 01:41:16;;;;;;;4.00;0.80;;;;;;;7.23;75.25;95805.82;108572;1272;22691;-74
2024/04/03 01:43:47;;;;;;;0.90;0.50;;;;;;;7.22;75.45;95808.10;108533;1275;22614;-73
2024/04/03 01:46:18;;;;;;;2.60;0.70;;;;;;;7.20;75.28;95809.80;108583;1275;22558;-73
2024/04/03 01:48:49;;;;;;;0.60;0.40;;;;;;;7.19;75.34;95809.49;108499;1275;22559;-73
2024/04/03 01:51:20;;;;;;;1.50;0.50;;;;;;;7.21;75.51;95810.79;108572;1273;22523;-73
2024/04/03 01:53:50;;;;;;;3.50;0.90;;;;;;;7.27;75.38;95812.11;108454;1275;159990;-73
2024/04/03 01:56:21;;;;;;;1.70;0.80;;;;;;;7.32;75.42;95809.38;108524;1275;22537;-73
2024/04/03 01:58:51;;;;;;;1.50;0.60;;;;;;;7.35;75.42;95808.84;108582;1275;22553;-73
2024/04/03 02:01:22;;;;;;;1.70;0.40;;;;;;;7.34;75.59;95807.15;108489;1275;22523;-73
2024/04/03 02:03:53;;;;;;;2.10;0.70;;;;;;;7.34;75.37;95805.25;108542;1273;22533;-73
2024/04/03 02:06:23;;;;;;;2.30;0.60;;;;;;;7.37;75.59;95802.06;108567;1275;22534;-73
2024/04/03 02:08:54;;;;;;;3.20;0.80;;;;;;;7.40;75.49;95791.21;108544;1275;25358;-74
2024/04/03 02:11:24;;;;;;;1.10;0.60;;;;;;;7.42;75.62;95792.09;108518;1275;22551;-73
2024/04/03 02:13:55;;;;;;;1.90;0.40;;;;;;;7.44;75.53;95790.75;108513;1275;22788;-73
2024/04/03 02:16:27;;;;;;;2.10;0.60;;;;;;;7.46;75.57;95794.17;108558;1275;22542;-73
2024/04/03 02:18:59;;;;;;;3.40;0.90;;;;;;;7.48;75.47;95794.21;108569;1275;22539;-73
2024/04/03 02:21:30;;;;;;;2.10;0.70;;;;;;;7.49;75.38;95788.78;108621;1275;24360;-73
2024/04/03 02:24:00;;;;;;;1.60;0.70;;;;;;;7.47;75.19;95790.64;108519;1275;22524;-73
2024/04/03 02:26:31;;;;;;;1.70;0.70;;;;;;;7.53;74.77;95785.92;108497;1275;22537;-74
2024/04/03 02:29:04;;;;;;;3.00;0.80;;;;;;;7.59;74.51;95792.41;108503;1275;22563;-73
2024/04/03 02:31:35;;;;;;;1.00;0.50;;;;;;;7.64;74.19;95794.38;108617;1273;22578;-73
2024/04/03 02:34:05;;;;;;;0.70;0.50;;;;;;;7.64;74.17;95793.16;108562;1254;22615;-74
2024/04/03 02:36:36;;;;;;;1.40;0.60;;;;;;;7.63;74.15;95793.23;108607;1273;22934;-73
2024/04/03 02:39:07;;;;;;;1.10;0.60;;;;;;;7.65;74.34;95787.35;108583;1275;22536;-74
2024/04/03 02:41:37;;;;;;;2.30;1.00;;;;;;;7.66;74.31;95785.42;108577;1275;25234;-74
2024/04/03 02:44:09;;;;;;;2.10;0.70;;;;;;;7.64;74.32;95786.40;108531;1275;25320;-74
2024/04/03 02:46:39;;;;;;;2.10;0.50;;;;;;;7.61;74.14;95779.21;108599;1275;22774;-73
2024/04/03 02:49:12;;;;;;;1.00;0.50;;;;;;;7.56;74.08;95781.67;108541;1267;22519;-74
2024/04/03 02:51:42;;;;;;;1.30;0.60;;;;;;;7.49;74.23;95780.69;108536;1275;24250;-73
2024/04/03 02:54:13;;;;;;;1.70;0.90;;;;;;;7.42;74.29;95780.27;108576;1275;23794;-74
2024/04/03 02:56:44;;;;;;;2.10;0.90;;;;;;;7.36;74.38;95776.33;108568;1275;22569;-74
2024/04/03 02:59:14;;;;;;;1.90;0.70;;;;;;;7.38;74.62;95779.58;108493;1275;22535;-73
2024/04/03 03:01:45;;;;;;;2.80;0.70;;;;;;;7.42;74.70;95777.59;108533;1257;22566;-73
2024/04/03 03:04:15;;;;;;;1.90;0.70;;;;;;;7.50;74.56;95775.15;108624;1275;22519;-73
2024/04/03 03:06:46;;;;;;;2.40;0.80;;;;;;;7.55;74.43;95776.83;108612;1275;22731;-74
2024/04/03 03:09:18;;;;;;;2.60;1.00;;;;;;;7.55;74.52;95778.20;108607;1274;22534;-74
2024/04/03 03:11:49;;;;;;;1.80;0.90;;;;;;;7.54;74.51;95781.90;108605;1270;22651;-74
2024/04/03 03:14:19;;;;;;;1.70;0.60;;;;;;;7.53;74.72;95782.51;108598;1275;22529;-73
2024/04/03 03:16:50;;;;;;;1.50;0.90;;;;;;;7.52;74.73;95784.31;108631;1272;22534;-73
2024/04/03 03:19:20;;;;;;;2.10;0.80;;;;;;;7.52;74.77;95782.36;108589;1275;24353;-73
2024/04/03 03:21:51;;;;;;;1.50;0.80;;;;;;;7.52;74.80;95781.58;108614;1275;22576;-73
2024/04/03 03:24:23;;;;;;;2.70;0.70;;;;;;;7.52;74.73;95781.56;108584;1275;22546;-73
2024/04/03 03:26:54;;;;;;;3.30;0.70;;;;;;;7.54;74.82;95780.06;108577;1275;22531;-73
2024/04/03 03:29:24;;;;;;;3.00;1.00;;;;;;;7.53;74.61;95773.16;108579;1275;22534;-74
2024/04/03 03:31:55;;;;;;;2.50;0.70;;;;;;;7.45;74.67;95776.14;108543;1275;22527;-74
2024/04/03 03:34:26;;;;;;;1.30;0.60;;;;;;;7.39;74.54;95774.04;108563;1270;22552;-73
2024/04/03 03:36:56;;;;;;;1.40;0.70;;;;;;;7.33;74.72;95768.82;108555;1270;22523;-74
2024/04/03 03:39:27;;;;;;;1.80;0.70;;;;;;;7.26;74.77;95766.77;108588;1275;23826;-74
2024/04/03 03:41:57;;;;;;;2.40;0.60;;;;;;;7.20;74.93;95763.20;108521;1273;22517;-74
2024/04/03 03:44:28;;;;;;;2.80;1.00;;;;;;;7.16;74.83;95754.19;108632;1268;24221;-73
2024/04/03 03:46:58;;;;;;;2.10;0.80;;;;;;;7.13;74.86;95769.67;108598;1269;22595;-73
2024/04/03 03:52:37;;;;;;;2.40;0.90;;;;;;;7.06;75.07;95771.95;108466;1275;22527;-73
2024/04/03 03:55:08;;;;;;;1.90;0.90;;;;;;;7.07;75.09;95777.73;108494;1275;22689;-74
2024/04/03 03:57:39;;;;;;;1.50;0.70;;;;;;;7.03;74.96;95772.71;108555;1275;25282;-74
2024/04/03 04:00:12;;;;;;;1.90;0.80;;;;;;;6.99;75.01;95776.53;108509;1275;24148;-74
2024/04/03 04:02:42;;;;;;;1.00;0.60;;;;;;;6.96;75.18;95779.82;108557;1269;22519;-74
2024/04/03 04:05:13;;;;;;;1.50;0.60;;;;;;;6.98;75.03;95777.91;108519;1269;22583;-74
2024/04/03 04:07:43;;;;;;;1.50;0.60;;;;;;;6.96;75.02;95782.02;108564;1270;22523;-74
2024/04/03 04:10:14;;;;;;;1.70;0.60;;;;;;;6.94;74.90;95780.36;108547;1273;22648;-74
2024/04/03 04:12:45;;;;;;;3.20;1.00;;;;;;;6.92;75.01;95774.85;108536;1273;23815;-74
2024/04/03 04:15:16;;;;;;;1.40;0.70;;;;;;;6.96;74.98;95781.98;108515;1275;22550;-74
2024/04/03 04:17:46;;;;;;;1.50;0.70;;;;;;;6.99;74.94;95782.59;108511;1270;22518;-74
2024/04/03 04:20:17;;;;;;;1.70;0.50;;;;;;;6.97;74.90;95781.23;108540;1275;22581;-74
2024/04/03 04:22:48;;;;;;;4.50;0.90;;;;;;;6.91;74.92;95780.33;108520;1275;22614;-74
2024/04/03 04:25:19;;;;;;;1.10;0.60;;;;;;;6.92;75.27;95787.64;108554;1272;22527;-74
2024/04/03 04:27:50;;;;;;;1.70;0.50;;;;;;;6.98;75.10;95789.92;108547;1275;22533;-74
2024/04/03 04:30:21;;;;;;;1.40;0.60;;;;;;;7.16;75.36;95791.46;108549;1275;22533;-74
2024/04/03 04:32:51;;;;;;;5.00;0.80;;;;;;;7.58;75.31;95792.36;108520;1275;22526;-74
2024/04/03 04:35:22;;;;;;;2.90;0.80;;;;;;;8.07;75.18;95790.48;108560;1275;25297;-74
2024/04/03 04:37:52;;;;;;;1.10;0.70;;;;;;;8.54;74.45;95785.33;108526;1275;22549;-74
2024/04/03 04:40:23;;;;;;;3.40;0.90;;;;;;;8.85;73.16;95795.78;108485;1270;26570;-74
2024/04/03 04:42:54;;;;;;;2.20;0.70;;;;;;;9.19;72.65;95793.52;108555;1272;25399;-74
2024/04/03 04:45:24;;;;;;;1.20;0.70;;;;;;;9.66;72.55;95796.59;108546;1270;22736;-74
2024/04/03 04:47:55;;;;;;;4.70;0.80;;;;;;;10.19;71.86;95787.98;108528;1272;22549;-74
2024/04/03 04:50:25;;;;;;;2.10;0.70;;;;;;;10.63;70.80;95787.85;108568;1269;22552;-74
2024/04/03 04:52:56;;;;;;;2.20;1.00;;;;;;;10.80;69.01;95787.79;108518;1272;26232;-74
2024/04/03 04:55:26;;;;;;;3.60;1.00;;;;;;;10.32;68.00;95792.83;108566;1275;22525;-74
2024/04/03 04:57:57;;;;;;;2.10;0.90;;;;;;;9.76;68.00;95792.98;108477;1275;25250;-74
2024/04/03 05:00:28;;;;;;;1.50;0.80;;;;;;;9.36;68.23;95791.24;108589;1269;22643;-74
2024/04/03 05:02:58;;;;;;;3.00;0.80;;;;;;;9.01;68.64;95797.81;108554;1272;22523;-74
2024/04/03 05:05:33;;;;;;;2.50;1.00;;;;;;;9.15;69.92;95802.52;108579;1268;22527;-74
2024/04/03 05:08:06;;;;;;;1.90;0.90;;;;;;;10.06;69.97;95808.48;108546;1269;22552;-75
2024/04/03 05:10:37;;;;;;;2.10;1.10;;;;;;;11.07;69.83;95803.15;108513;1268;22565;-75
2024/04/03 05:13:08;;;;;;;3.10;1.30;;;;;;;12.09;68.58;95798.81;108540;1275;23363;-74
2024/04/03 05:15:39;;;;;;;3.10;1.50;;;;;;;12.67;66.56;95795.87;108546;1275;22614;-75
2024/04/03 05:18:10;;;;;;;2.40;1.60;;;;;;;12.38;64.29;95791.95;108593;1269;22813;-74
2024/04/03 05:20:40;;;;;;;3.50;1.50;;;;;;;12.27;65.30;95793.59;108602;1269;22566;-75
2024/04/03 05:23:12;;;;;;;2.90;1.50;;;;;;;13.01;65.07;95796.39;108555;1270;23972;-75
2024/04/03 05:25:45;;;;;;;2.20;1.10;;;;;;;13.75;63.75;95791.75;108551;1269;22992;-75
2024/04/03 05:28:15;;;;;;;1.00;0.60;;;;;;;14.17;62.28;95793.60;108548;1275;22515;-74
2024/04/03 05:30:46;;;;;;;3.30;1.20;;;;;;;14.60;61.57;95800.33;108489;1275;22531;-75
2024/04/03 05:33:17;;;;;;;1.80;0.60;;;;;;;15.11;59.61;95803.29;108552;1275;23843;-75
2024/04/03 05:35:57;;;;;;;2.60;0.80;;;;;;;15.60;58.91;95804.66;108468;1270;22545;-75
2024/04/03 05:38:28;;;;;;;2.10;0.80;;;;;;;15.67;56.31;95811.55;108454;1275;25369;-72
2024/04/03 05:41:00;;;;;;;3.70;1.00;;;;;;;15.93;55.40;95799.52;108546;1275;25243;-74
2024/04/03 05:43:31;;;;;;;1.80;0.80;;;;;;;15.99;54.41;95808.71;108522;1275;22547;-74
2024/04/03 05:46:02;;;;;;;2.20;0.90;;;;;;;16.80;53.85;95805.87;108551;1269;25384;-74
2024/04/03 05:48:33;;;;;;;2.70;0.80;;;;;;;16.14;52.39;95802.80;108564;1269;22530;-74
2024/04/03 05:51:05;;;;;;;1.90;1.00;;;;;;;14.86;51.79;95806.98;108696;1270;22557;-74
2024/04/03 05:53:36;;;;;;;1.50;0.80;;;;;;;13.29;51.90;95805.63;108690;1275;22706;-74
2024/04/03 05:56:08;;;;;;;2.10;0.90;;;;;;;12.16;53.45;95797.40;108638;1269;22554;-74
2024/04/03 05:58:39;;;;;;;2.30;0.80;;;;;;;11.28;55.21;95811.58;108713;1269;24236;-75
2024/04/03 06:01:09;;;;;;;1.70;0.80;;;;;;;10.86;56.48;95811.04;108690;1272;24251;-75
2024/04/03 06:03:40;;;;;;;0.90;0.50;;;;;;;10.45;57.58;95813.48;108675;1268;25019;-74
2024/04/03 06:06:11;;;;;;;0.80;0.50;;;;;;;10.01;58.69;95811.73;108676;1275;22530;-74
2024/04/03 06:08:42;;;;;;;1.90;0.70;;;;;;;9.83;59.74;95814.50;108681;1271;22569;-75
2024/04/03 06:11:12;;;;;;;2.20;0.70;;;;;;;9.78;60.41;95817.08;108719;1272;25362;-74
2024/04/03 06:13:43;;;;;;;2.60;0.90;;;;;;;9.74;60.86;95818.11;108664;1275;26231;-74
2024/04/03 06:16:14;;;;;;;1.60;0.60;;;;;;;9.59;61.34;95813.81;108663;1270;24196;-74
2024/04/03 06:18:45;;;;;;;2.00;0.80;;;;;;;9.42;62.01;95817.80;108626;1269;22592;-74
2024/04/03 06:21:16;;;;;;;1.90;0.80;;;;;;;9.31;62.61;95823.45;108590;1253;24230;-74
2024/04/03 06:23:46;;;;;;;2.00;0.90;;;;;;;9.27;63.33;95820.00;108591;1275;22532;-74
2024/04/03 06:26:17;;;;;;;1.50;0.50;;;;;;;9.30;63.72;95830.39;108511;1275;22609;-74
2024/04/03 06:28:49;;;;;;;2.30;1.10;;;;;;;9.39;63.95;95834.46;108555;1272;24270;-74
2024/04/03 06:31:19;;;;;;;1.70;0.80;;;;;;;9.44;64.00;95833.90;108550;1272;22655;-75
2024/04/03 06:33:52;;;;;;;1.80;0.90;;;;;;;9.46;64.23;95837.33;108531;1275;22639;-74
2024/04/03 06:36:23;;;;;;;1.50;0.70;;;;;;;9.45;64.29;95841.30;108609;1275;22546;-74
2024/04/03 06:38:54;;;;;;;2.10;1.00;;;;;;;9.39;64.66;95839.42;108599;1275;22522;-74
2024/04/03 06:41:25;;;;;;;3.70;1.00;;;;;;;9.38;65.12;95842.73;108528;1275;22627;-74
2024/04/03 06:43:56;;;;;;;1.30;0.80;;;;;;;9.74;65.28;95837.27;108543;1268;22561;-73
2024/04/03 06:46:26;;;;;;;2.60;0.90;;;;;;;10.82;65.69;95838.30;108551;1272;22523;-74
2024/04/03 06:48:57;;;;;;;1.70;0.80;;;;;;;12.61;64.04;95837.27;108517;1270;22535;-74
2024/04/03 06:51:28;;;;;;;3.20;1.00;;;;;;;14.40;61.39;95839.88;108559;1275;22555;-74
2024/04/03 06:53:58;;;;;;;2.60;1.10;;;;;;;15.12;57.74;95844.30;108530;1269;22587;-73
2024/04/03 06:56:30;;;;;;;2.20;0.70;;;;;;;14.79;56.61;95851.13;108380;1268;22801;-74
2024/04/03 06:59:04;;;;;;;3.00;1.10;;;;;;;14.04;54.55;95840.58;108634;1269;22587;-74
2024/04/03 07:01:35;;;;;;;2.60;0.80;;;;;;;12.76;54.78;95850.11;108441;1272;22987;-74
2024/04/03 07:04:06;;;;;;;2.30;0.90;;;;;;;11.93;56.16;95849.45;108510;1270;22649;-74
2024/04/03 07:06:36;;;;;;;3.50;1.10;;;;;;;11.47;57.07;95854.21;108541;1275;22515;-73
2024/04/03 07:09:08;;;;;;;2.40;0.90;;;;;;;11.05;58.06;95855.50;108579;1275;22641;-74
2024/04/03 07:11:39;;;;;;;3.90;0.70;;;;;;;10.84;59.06;95865.67;108593;1271;22533;-74
2024/04/03 07:14:10;;;;;;;3.50;1.10;;;;;;;10.58;59.69;95864.28;108542;1267;24324;-73
2024/04/03 07:16:40;;;;;;;2.90;0.70;;;;;;;10.42;60.50;95868.35;108560;1275;26452;-73
2024/04/03 07:19:11;;;;;;;2.60;0.90;;;;;;;10.41;60.95;95868.55;108559;1275;25262;-73
2024/04/03 07:21:42;;;;;;;3.10;1.00;;;;;;;10.44;61.17;95868.98;108549;1273;22537;-74
2024/04/03 07:24:13;;;;;;;2.90;0.90;;;;;;;10.40;61.12;95871.05;108541;1272;22533;-74
2024/04/03 07:26:44;;;;;;;2.60;1.20;;;;;;;10.34;61.28;95873.61;108627;1269;22631;-74
2024/04/03 07:29:15;;;;;;;4.30;1.60;;;;;;;10.29;61.45;95873.77;108591;1269;23883;-74
2024/04/03 07:31:45;;;;;;;1.70;0.90;;;;;;;10.31;61.86;95867.09;108559;1273;25280;-73
2024/04/03 07:34:16;;;;;;;3.10;1.00;;;;;;;10.47;62.28;95865.08;108566;1274;22546;-73
2024/04/03 07:36:47;;;;;;;3.90;1.10;;;;;;;10.75;62.25;95868.66;108619;1274;24289;-74
2024/04/03 07:39:17;;;;;;;2.40;0.70;;;;;;;10.99;61.79;95872.03;108567;1274;23958;-74
2024/04/03 07:41:48;;;;;;;3.90;1.00;;;;;;;11.06;60.97;95870.23;108535;1274;22516;-73
2024/04/03 07:44:21;;;;;;;1.90;1.10;;;;;;;11.42;60.77;95870.11;108545;1274;26005;-73
2024/04/03 07:46:51;;;;;;;4.40;1.50;;;;;;;12.29;60.89;95868.28;108592;1274;22529;-74
2024/04/03 07:49:22;;;;;;;3.10;0.90;;;;;;;14.32;57.91;95861.31;108629;1274;22530;-73
2024/04/03 07:51:53;;;;;;;3.60;1.10;;;;;;;15.42;57.07;95857.89;108588;1268;22541;-74
2024/04/03 07:54:23;;;;;;;2.70;1.00;;;;;;;16.92;55.54;95853.29;108573;1256;22741;-74
2024/04/03 07:56:54;;;;;;;3.20;0.90;;;;;;;17.13;52.42;95854.77;108535;1268;25336;-74
2024/04/03 07:59:24;;;;;;;3.80;1.20;;;;;;;17.24;52.60;95854.65;108583;1272;22526;-74
2024/04/03 08:01:55;;;;;;;1.60;0.80;;;;;;;17.94;51.92;95853.02;108588;1275;22545;-74
2024/04/03 08:04:26;;;;;;;1.60;0.80;;;;;;;18.26;49.95;95854.58;108589;1272;22530;-75
2024/04/03 08:06:56;;;;;;;1.50;0.80;;;;;;;18.69;46.95;95852.66;108500;1268;22513;-74
2024/04/03 08:09:27;;;;;;;3.50;1.10;;;;;;;17.93;46.58;95857.91;108564;1275;24124;-74
2024/04/03 08:11:57;;;;;;;2.00;0.70;;;;;;;18.04;45.31;95856.28;108403;1276;22522;-74
2024/04/03 08:14:28;;;;;;;2.40;1.00;;;;;;;17.53;43.97;95861.76;108514;1268;23426;-74
2024/04/03 08:16:59;;;;;;;3.50;0.90;;;;;;;16.52;45.90;95869.98;108549;1272;22989;-74
2024/04/03 08:19:29;;;;;;;1.60;0.80;;;;;;;17.00;44.76;95862.61;108549;1275;22646;-74
2024/04/03 08:22:00;;;;;;;3.10;0.80;;;;;;;16.96;43.76;95863.34;108559;1269;22552;-74
2024/04/03 08:24:33;;;;;;;2.50;0.60;;;;;;;16.53;45.24;95865.04;108381;1273;22530;-75
2024/04/03 08:27:04;;;;;;;2.60;0.90;;;;;;;16.32;43.89;95859.83;108448;1276;23239;-74
2024/04/03 08:29:37;;;;;;;1.60;0.50;;;;;;;14.85;44.62;95865.95;108364;1268;22553;-74
2024/04/03 08:32:09;;;;;;;0.90;0.50;;;;;;;13.68;46.34;95866.03;108404;1275;22650;-74
2024/04/03 08:34:40;;;;;;;1.50;0.40;;;;;;;13.23;46.91;95855.40;108385;1268;22991;-74
2024/04/03 08:37:13;;;;;;;3.00;0.90;;;;;;;12.70;48.51;95868.11;108396;1268;22640;-74
2024/04/03 08:39:43;;;;;;;2.00;0.60;;;;;;;13.44;48.25;95863.76;108385;1276;25333;-74
2024/04/03 08:42:21;;;;;;;2.10;0.70;;;;;;;14.85;46.87;95857.22;108416;1273;24338;-74
2024/04/03 08:44:53;;;;;;;1.80;0.50;;;;;;;14.40;44.64;95853.72;108532;1275;22635;-74
2024/04/03 08:47:26;;;;;;;1.40;0.70;;;;;;;13.33;46.11;95856.25;108530;1275;24153;-74
2024/04/03 08:49:56;;;;;;;1.10;0.40;;;;;;;12.90;47.43;95859.77;108575;1269;22525;-74
2024/04/03 08:52:29;;;;;;;2.00;0.50;;;;;;;12.97;47.25;95860.40;108514;1275;22645;-74
2024/04/03 08:55:03;;;;;;;3.20;0.70;;;;;;;13.14;47.00;95854.83;108568;1269;22549;-74
2024/04/03 08:57:34;;;;;;;2.50;0.60;;;;;;;12.98;47.11;95855.77;108396;1273;22538;-74
2024/04/03 09:00:06;;;;;;;2.50;0.50;;;;;;;12.87;47.53;95857.52;108550;1269;22522;-74
2024/04/03 09:02:38;;;;;;;2.90;0.50;;;;;;;13.06;48.31;95855.78;108490;1275;24364;-74
2024/04/03 09:05:13;;;;;;;2.70;0.60;;;;;;;13.41;47.77;95857.64;108377;1276;22544;-74
2024/04/03 09:07:44;;;;;;;1.70;0.70;;;;;;;13.08;47.51;95851.91;108464;1268;22564;-74
2024/04/03 09:10:15;;;;;;;0.60;0.30;;;;;;;12.61;47.21;95859.05;108413;1273;22530;-75
2024/04/03 09:12:46;;;;;;;1.90;0.60;;;;;;;12.42;47.47;95849.48;108416;1275;22523;-74
2024/04/03 09:15:16;;;;;;;1.20;0.30;;;;;;;12.49;48.18;95857.89;108510;1275;22530;-75
2024/04/03 09:17:47;;;;;;;0.60;0.50;;;;;;;12.55;48.12;95846.63;108483;1272;25221;-75
2024/04/03 09:20:25;;;;;;;0.70;0.50;;;;;;;12.65;48.32;95856.33;108408;1269;25410;-75
2024/04/03 09:22:57;;;;;;;2.50;0.40;;;;;;;12.63;47.93;95856.88;108491;1269;22545;-74
2024/04/03 09:25:31;;;;;;;3.20;0.50;;;;;;;12.49;47.06;95845.03;108517;1275;22676;-74
2024/04/03 09:28:04;;;;;;;2.50;0.40;;;;;;;12.47;47.30;95840.36;108449;1269;26000;-74
2024/04/03 09:30:39;;;;;;;1.10;0.70;;;;;;;12.31;47.48;95845.95;108511;1268;22549;-75
2024/04/03 09:33:09;;;;;;;0.60;0.30;;;;;;;12.29;47.55;95845.66;108464;1275;24158;-74
2024/04/03 09:35:41;;;;;;;1.20;0.30;;;;;;;12.20;47.58;95842.50;108567;1275;25220;-75
2024/04/03 09:38:14;;;;;;;2.20;0.30;;;;;;;12.07;47.64;95846.44;108571;1272;22536;-75
2024/04/03 09:40:49;;;;;;;2.90;0.40;;;;;;;12.10;48.37;95853.17;108598;1275;22552;-74
2024/04/03 09:43:26;;;;;;;1.10;0.50;;;;;;;12.41;49.18;95840.88;108526;1268;25230;-74
2024/04/03 09:46:00;;;;;;;3.10;0.70;;;;;;;12.50;48.14;95829.48;108502;1268;22527;-74
2024/04/03 09:48:31;;;;;;;1.70;0.40;;;;;;;12.44;48.28;95840.70;108521;1275;22666;-74
2024/04/03 09:51:02;;;;;;;0.80;0.40;;;;;;;12.57;48.32;95838.55;108474;1275;22540;-74
2024/04/03 09:53:34;;;;;;;2.50;0.60;;;;;;;12.69;48.35;95848.63;108506;1275;22556;-74
2024/04/03 09:56:05;;;;;;;1.60;0.80;;;;;;;12.63;47.70;95847.20;108425;1268;22519;-73
2024/04/03 09:58:42;;;;;;;2.60;0.60;;;;;;;12.52;47.17;95850.02;108515;1272;22645;-74
2024/04/03 10:01:20;;;;;;;1.00;0.50;;;;;;;12.70;47.53;95845.45;108560;1273;22523;-74
2024/04/03 10:03:51;;;;;;;2.90;1.00;;;;;;;12.82;46.84;95829.16;108443;1275;22522;-74
2024/04/03 10:06:27;;;;;;;2.30;0.50;;;;;;;12.67;45.66;95839.80;108520;1268;22592;-74
2024/04/03 10:08:59;;;;;;;1.20;0.60;;;;;;;12.51;46.12;95846.95;108573;1272;22856;-74
2024/04/03 10:11:34;;;;;;;3.10;0.60;;;;;;;12.37;45.89;95835.36;108457;1275;24282;-74
2024/04/03 10:14:07;;;;;;;3.40;0.70;;;;;;;12.44;46.41;95832.78;108499;1269;25315;-75
2024/04/03 10:16:38;;;;;;;1.80;0.60;;;;;;;12.66;47.08;95835.73;108542;1268;22532;-74
2024/04/03 10:19:11;;;;;;;2.80;0.60;;;;;;;12.79;47.17;95841.54;108566;1275;23058;-74
2024/04/03 10:21:43;;;;;;;2.30;0.40;;;;;;;13.07;47.23;95840.23;108493;1268;22582;-74
2024/04/03 10:24:14;;;;;;;1.40;0.30;;;;;;;13.11;46.00;95836.99;108574;1275;22539;-74
2024/04/03 10:26:46;;;;;;;1.00;0.40;;;;;;;13.11;46.35;95848.88;108547;1275;22543;-74
2024/04/03 10:29:17;;;;;;;1.10;0.40;;;;;;;13.17;45.25;95839.61;108484;1268;22567;-74
2024/04/03 10:31:49;;;;;;;1.70;0.60;;;;;;;13.14;45.91;95846.23;108515;1272;22525;-74
2024/04/03 10:34:21;;;;;;;0.60;0.30;;;;;;;13.46;46.25;95840.06;108476;1271;22612;-74
2024/04/03 10:36:53;;;;;;;2.90;0.70;;;;;;;13.48;45.14;95831.31;108504;1268;25498;-74
2024/04/03 10:39:25;;;;;;;2.20;0.70;;;;;;;13.40;45.50;95844.45;108526;1272;22536;-74
2024/04/03 10:42:01;;;;;;;2.10;0.50;;;;;;;13.54;46.55;95847.28;108530;1268;22666;-74
2024/04/03 10:44:31;;;;;;;1.70;0.30;;;;;;;13.79;46.70;95849.91;108411;1269;22559;-74
2024/04/03 10:47:09;;;;;;;1.40;0.40;;;;;;;13.95;45.87;95832.64;108378;1269;25426;-74
2024/04/03 10:49:41;;;;;;;2.10;0.30;;;;;;;14.04;45.48;95836.42;108469;1268;25363;-74
2024/04/03 10:52:14;;;;;;;3.80;0.70;;;;;;;14.07;45.35;95838.05;108448;1268;25244;-74
2024/04/03 10:54:45;;;;;;;0.40;0.20;;;;;;;14.01;45.20;95838.50;108378;1262;22521;-74
2024/04/03 10:57:16;;;;;;;2.80;0.60;;;;;;;13.88;44.49;95838.27;108436;1268;22584;-74
2024/04/03 10:59:47;;;;;;;1.60;0.40;;;;;;;13.85;44.37;95828.48;108385;1276;24147;-74
2024/04/03 11:02:18;;;;;;;2.70;0.40;;;;;;;13.69;44.43;95840.38;108414;1268;22520;-74
2024/04/03 11:04:50;;;;;;;1.90;0.40;;;;;;;13.73;44.68;95844.63;108560;1268;22552;-74
2024/04/03 11:07:22;;;;;;;3.10;0.60;;;;;;;13.79;44.34;95837.88;108565;1275;22558;-74
2024/04/03 11:09:53;;;;;;;2.30;0.60;;;;;;;13.91;44.51;95831.92;108545;1275;24411;-74
2024/04/03 11:12:24;;;;;;;1.30;0.40;;;;;;;14.04;44.18;95838.08;108511;1269;25339;-74
2024/04/03 11:14:58;;;;;;;1.20;0.30;;;;;;;14.09;43.36;95829.08;108506;1264;22525;-73
2024/04/03 11:17:29;;;;;;;1.60;0.40;;;;;;;14.18;43.90;95835.73;108569;1275;22533;-74
2024/04/03 11:20:00;;;;;;;1.90;0.80;;;;;;;14.39;44.03;95834.45;108576;1269;22557;-74
2024/04/03 11:22:30;;;;;;;1.80;0.60;;;;;;;14.59;44.43;95830.54;108461;1275;22535;-74
2024/04/03 11:25:02;;;;;;;1.20;0.20;;;;;;;14.82;44.40;95825.41;108501;1275;22537;-73
2024/04/03 11:27:32;;;;;;;1.60;0.40;;;;;;;14.81;42.73;95835.43;108506;1275;22542;-74
2024/04/03 11:30:03;;;;;;;1.20;0.40;;;;;;;14.84;43.64;95839.52;108568;1270;22532;-74
2024/04/03 11:32:35;;;;;;;1.00;0.50;;;;;;;14.98;43.31;95841.54;108446;1272;22582;-74
2024/04/03 11:35:08;;;;;;;1.90;0.40;;;;;;;14.72;41.93;95835.62;108526;1269;22540;-74
2024/04/03 11:37:39;;;;;;;3.30;0.60;;;;;;;14.67;41.84;95845.44;108558;1265;23606;-74
2024/04/03 11:40:11;;;;;;;0.80;0.30;;;;;;;14.70;42.31;95844.23;108560;1268;22653;-74
2024/04/03 11:42:41;;;;;;;0.60;0.20;;;;;;;14.61;41.88;95829.61;108541;1275;22650;-74
2024/04/03 11:45:12;;;;;;;2.60;0.60;;;;;;;14.58;41.92;95833.92;108533;1268;22538;-74
2024/04/03 11:47:44;;;;;;;1.30;0.50;;;;;;;14.51;41.48;95841.50;108551;1267;22537;-74
2024/04/03 11:50:15;;;;;;;1.30;0.50;;;;;;;14.49;42.17;95844.16;108390;1269;24300;-75